Погода Церковлянена неделю

Витебская область, Белоруссия

24 - 30 мая
  • 24мая
    Сегодня
    +11°
    +24°
    Ясно и безоблачно
    ВремяПогодаТемператураВлажностьДавлениеВетер, м/сВероятность осадков
    00:00Практически безоблачно+16°C67 %760 мм4.0 м/с2 %
    03:00Ясно и безоблачно+13°C62 %760 мм3.5 м/с2 %
    06:00Ясно и безоблачно+12°C69 %761 мм3.8 м/с2 %
    09:00Ясно и безоблачно+17°C58 %762 мм4.3 м/с2 %
    12:00Ясно и безоблачно+22°C45 %762 мм4.6 м/с2 %
    15:00Ясно и безоблачно+23°C42 %761 мм4.4 м/с2 %
    18:00Ясно и безоблачно+23°C43 %760 мм4.1 м/с2 %
    21:00Ясно и безоблачно+18°C58 %760 мм2.8 м/с2 %
  • 25мая
    Суббота
    +10°
    +26°
    Практически безоблачно
    ВремяПогодаТемператураВлажностьДавлениеВетер, м/сВероятность осадков
    00:00Ясно и безоблачно+14°C62 %761 мм3.4 м/с2 %
    03:00Ясно и безоблачно+12°C69 %761 мм3.0 м/с2 %
    06:00Ясно и безоблачно+12°C74 %761 мм3.0 м/с2 %
    09:00Ясно и безоблачно+18°C63 %761 мм2.6 м/с2 %
    12:00Ясно и безоблачно+23°C51 %760 мм2.3 м/с1 %
    15:00Практически безоблачно+25°C40 %759 мм2.6 м/с3 %
    18:00Небольшая облачность+25°C41 %759 мм2.3 м/с11 %
    21:00Ясно и безоблачно+20°C65 %759 мм1.5 м/с3 %
  • 26мая
    Воскресенье
    +12°
    +27°
    Небольшая облачность
    ВремяПогодаТемператураВлажностьДавлениеВетер, м/сВероятность осадков
    00:00Ясно и безоблачно+14°C83 %759 мм1.9 м/с2 %
    03:00Ясно и безоблачно+11°C87 %759 мм2.3 м/с2 %
    06:00Ясно и безоблачно+12°C88 %759 мм1.3 м/с2 %
    09:00Ясно и безоблачно+19°C67 %760 мм0.7 м/с2 %
    12:00Ясно и безоблачно+24°C42 %760 мм0.3 м/с2 %
    15:00Небольшая облачность+26°C36 %759 мм0.6 м/с2 %
    18:00Небольшая облачность+26°C37 %759 мм1.0 м/с2 %
    21:00Ясно и безоблачно+23°C45 %759 мм0.2 м/с2 %
  • 27мая
    Понедельник
    +13°
    +26°
    Облачно с прояснениями
    ВремяПогодаТемператураВлажностьДавлениеВетер, м/сВероятность осадков
    00:00Практически безоблачно+17°C70 %759 мм1.4 м/с2 %
    03:00Ясно и безоблачно+14°C81 %759 мм2.1 м/с2 %
    06:00Ясно и безоблачно+14°C86 %760 мм2.1 м/с2 %
    09:00Практически безоблачно+20°C72 %760 мм1.7 м/с2 %
    12:00Ясно и безоблачно+25°C54 %760 мм1.8 м/с6 %
    15:00Облачно с прояснениями+25°C50 %759 мм1.2 м/с15 %
    18:00Практически безоблачно+25°C62 %759 мм2.0 м/с35 %
    21:00Ясно и безоблачно+20°C78 %759 мм1.8 м/с4 %
  • 28мая
    Вторник
    +12°
    +27°
    Ясно и безоблачно
    ВремяПогодаТемператураВлажностьДавлениеВетер, м/сВероятность осадков
    00:00Ясно и безоблачно+16°C90 %759 мм1.8 м/с2 %
    03:00Ясно и безоблачно+14°C94 %759 мм1.7 м/с2 %
    06:00Ясно и безоблачно+14°C92 %759 мм2.6 м/с2 %
    09:00Ясно и безоблачно+21°C75 %759 мм2.6 м/с2 %
    12:00Ясно и безоблачно+25°C57 %759 мм3.6 м/с12 %
    15:00Ясно и безоблачно+26°C50 %758 мм3.4 м/с18 %
    18:00Ясно и безоблачно+25°C45 %757 мм3.0 м/с19 %
    21:00Ясно и безоблачно+21°C58 %757 мм2.2 м/с4 %
Мы используем cookies
Соглашаюсь